createdAt,value
2024-01-07T00:01:56.465Z,-7.23
2024-01-07T00:06:58.816Z,-7.34
2024-01-07T00:12:33.295Z,-7.45
2024-01-07T00:17:35.300Z,-7.55
2024-01-07T00:22:37.461Z,-7.60
2024-01-07T00:27:39.751Z,-7.68
2024-01-07T00:32:51.763Z,-7.72
2024-01-07T00:37:59.786Z,-7.74
2024-01-07T00:43:20.002Z,-7.79
2024-01-07T00:48:22.497Z,-7.85
2024-01-07T00:53:24.668Z,-7.89
2024-01-07T00:58:26.718Z,-7.99
2024-01-07T01:03:37.483Z,-8.06
2024-01-07T01:09:00.393Z,-8.10
2024-01-07T01:14:02.742Z,-8.17
2024-01-07T01:19:25.193Z,-8.24
2024-01-07T01:24:57.666Z,-8.29
2024-01-07T01:29:59.837Z,-8.39
2024-01-07T01:35:05.746Z,-8.49
2024-01-07T01:40:17.474Z,-8.54
2024-01-07T01:45:19.888Z,-8.63
2024-01-07T01:50:23.048Z,-8.70
2024-01-07T01:55:25.260Z,-8.71
2024-01-07T02:00:27.901Z,-8.76
2024-01-07T02:05:30.027Z,-8.83
2024-01-07T02:10:35.027Z,-8.94
2024-01-07T02:15:37.197Z,-9.05
2024-01-07T02:20:39.293Z,-9.12
2024-01-07T02:25:52.639Z,-9.14
2024-01-07T02:30:57.130Z,-9.17
2024-01-07T02:35:59.223Z,-9.27
2024-01-07T02:41:08.532Z,-9.31
2024-01-07T02:46:10.544Z,-9.34
2024-01-07T02:51:12.582Z,-9.38
2024-01-07T02:56:14.825Z,-9.45
2024-01-07T03:01:22.191Z,-9.49
2024-01-07T03:06:28.368Z,-9.50
2024-01-07T03:11:30.603Z,-9.50
2024-01-07T03:16:32.775Z,-9.50
2024-01-07T03:21:37.601Z,-9.53
2024-01-07T03:26:39.750Z,-9.58
2024-01-07T03:31:41.725Z,-9.63
2024-01-07T03:36:43.943Z,-9.68
2024-01-07T03:41:45.972Z,-9.67
2024-01-07T03:46:47.857Z,-9.70
2024-01-07T03:51:49.867Z,-9.75
2024-01-07T03:57:03.869Z,-9.80
2024-01-07T04:02:08.585Z,-9.82
2024-01-07T04:07:10.845Z,-9.85
2024-01-07T04:12:13.214Z,-9.93
2024-01-07T04:17:15.166Z,-10.01
2024-01-07T04:22:17.073Z,-10.09
2024-01-07T04:27:19.229Z,-10.18
2024-01-07T04:32:21.185Z,-10.24
2024-01-07T04:37:23.096Z,-10.33
2024-01-07T04:42:25.129Z,-10.39
2024-01-07T04:47:29.355Z,-10.42
2024-01-07T04:52:31.302Z,-10.49
2024-01-07T04:57:33.168Z,-10.56
2024-01-07T05:02:35.220Z,-10.62
2024-01-07T05:07:38.298Z,-10.67
2024-01-07T05:12:40.263Z,-10.78
2024-01-07T05:17:42.266Z,-10.85
2024-01-07T05:22:44.323Z,-10.95
2024-01-07T05:27:46.206Z,-11.01
2024-01-07T05:32:48.258Z,-11.01
2024-01-07T05:37:50.215Z,-11.07
2024-01-07T05:42:52.192Z,-11.08
2024-01-07T05:47:54.113Z,-11.16
2024-01-07T05:52:56.321Z,-11.21
2024-01-07T05:57:58.884Z,-11.17
2024-01-07T06:03:01.315Z,-11.22
2024-01-07T06:08:04.463Z,-11.24
2024-01-07T06:13:06.722Z,-11.32
2024-01-07T06:18:08.759Z,-11.35
2024-01-07T06:23:10.680Z,-11.42
2024-01-07T06:28:12.710Z,-11.44
2024-01-07T06:33:15.670Z,-11.44
2024-01-07T06:38:17.823Z,-11.48
2024-01-07T06:43:19.832Z,-11.57
2024-01-07T06:48:22.004Z,-11.66
2024-01-07T06:53:24.161Z,-11.76
2024-01-07T06:58:26.236Z,-11.87
2024-01-07T07:03:28.344Z,-11.88
2024-01-07T07:08:30.536Z,-11.84
2024-01-07T07:13:32.541Z,-11.80
2024-01-07T07:18:34.765Z,-11.82
2024-01-07T07:23:36.851Z,-11.86
2024-01-07T07:28:38.776Z,-11.81
2024-01-07T07:33:41.262Z,-11.79
2024-01-07T07:38:43.437Z,-11.77
2024-01-07T07:43:48.007Z,-11.73
2024-01-07T07:48:50.214Z,-11.76
2024-01-07T07:53:52.655Z,-11.70
2024-01-07T07:58:54.790Z,-11.64
2024-01-07T08:03:57.094Z,-11.61
2024-01-07T08:08:59.494Z,-11.60
2024-01-07T08:14:06.569Z,-11.55
2024-01-07T08:19:08.718Z,-11.41
2024-01-07T08:24:11.849Z,-11.26
2024-01-07T08:29:13.937Z,-11.23
2024-01-07T08:34:22.004Z,-11.18
2024-01-07T08:39:26.350Z,-11.04
2024-01-07T08:44:28.609Z,-10.92
2024-01-07T08:49:33.837Z,-10.84
2024-01-07T08:54:36.311Z,-10.70
2024-01-07T08:59:38.461Z,-10.68
2024-01-07T09:04:40.598Z,-10.78
2024-01-07T09:09:42.822Z,-10.81
2024-01-07T09:14:44.832Z,-10.81
2024-01-07T09:19:47.012Z,-10.67
2024-01-07T09:24:50.585Z,-10.55
2024-01-07T09:29:53.925Z,-10.51
2024-01-07T09:34:56.444Z,-10.43
2024-01-07T09:39:59.059Z,-10.29
2024-01-07T09:45:06.809Z,-10.12
2024-01-07T09:50:10.337Z,-9.99
2024-01-07T09:55:27.785Z,-9.82
2024-01-07T10:00:30.293Z,-9.77
2024-01-07T10:05:32.905Z,-9.72
2024-01-07T10:10:48.189Z,-9.67
2024-01-07T10:15:50.355Z,-9.56
2024-01-07T10:20:55.898Z,-9.53
2024-01-07T10:26:03.320Z,-9.41
2024-01-07T10:31:08.041Z,-9.20
2024-01-07T10:36:10.520Z,-9.22
2024-01-07T10:41:13.040Z,-9.22
2024-01-07T10:46:16.458Z,-9.23
2024-01-07T10:51:21.000Z,-9.25
2024-01-07T10:56:24.972Z,-9.29
2024-01-07T11:01:27.385Z,-9.25
2024-01-07T11:06:44.227Z,-9.17
2024-01-07T11:12:08.555Z,-9.07
2024-01-07T11:17:30.734Z,-9.07
2024-01-07T11:22:41.998Z,-9.05
2024-01-07T11:27:44.114Z,-9.19
2024-01-07T11:32:52.338Z,-9.32
2024-01-07T11:37:55.140Z,-9.25
2024-01-07T11:42:57.387Z,-9.24
2024-01-07T11:47:59.532Z,-9.32
2024-01-07T11:53:01.974Z,-9.28
2024-01-07T11:58:04.806Z,-9.28
2024-01-07T12:03:10.373Z,-9.39
2024-01-07T12:08:13.069Z,-9.48
2024-01-07T12:13:16.872Z,-9.64
2024-01-07T12:18:20.924Z,-9.75
2024-01-07T12:23:23.313Z,-9.87
2024-01-07T12:28:31.573Z,-9.93
2024-01-07T12:33:34.328Z,-10.02
2024-01-07T12:38:39.991Z,-9.98
2024-01-07T12:43:42.017Z,-9.95
2024-01-07T12:48:44.156Z,-10.05
2024-01-07T12:53:51.527Z,-10.12
2024-01-07T12:58:53.441Z,-10.17
2024-01-07T13:03:55.869Z,-10.28
2024-01-07T13:08:58.135Z,-10.35
2024-01-07T13:14:02.237Z,-10.42
2024-01-07T13:19:04.963Z,-10.54
2024-01-07T13:24:07.333Z,-10.62
2024-01-07T13:29:09.365Z,-10.79
2024-01-07T13:34:14.997Z,-10.89
2024-01-07T13:39:18.088Z,-10.92
2024-01-07T13:44:20.617Z,-11.00
2024-01-07T13:49:23.205Z,-11.06
2024-01-07T13:54:25.254Z,-11.10
2024-01-07T13:59:27.503Z,-11.10
2024-01-07T14:04:29.675Z,-11.13
2024-01-07T14:09:32.090Z,-11.23
2024-01-07T14:14:34.374Z,-11.28
2024-01-07T14:19:36.504Z,-11.38
2024-01-07T14:24:38.531Z,-11.52
2024-01-07T14:29:40.556Z,-11.65
2024-01-07T14:34:43.054Z,-11.74
2024-01-07T14:39:46.123Z,-11.84
2024-01-07T14:44:51.296Z,-11.88
2024-01-07T14:49:53.717Z,-11.96
2024-01-07T14:54:57.068Z,-12.02
2024-01-07T14:59:58.913Z,-12.05
2024-01-07T15:05:01.227Z,-12.08
2024-01-07T15:10:03.733Z,-12.12
2024-01-07T15:15:07.365Z,-12.12
2024-01-07T15:20:09.864Z,-12.14
2024-01-07T15:25:12.090Z,-12.15
2024-01-07T15:30:22.450Z,-12.19
2024-01-07T15:35:49.302Z,-12.22
2024-01-07T15:40:51.610Z,-12.22
2024-01-07T15:45:57.172Z,-12.22
2024-01-07T15:50:59.602Z,-12.21
2024-01-07T15:56:04.331Z,-12.16
2024-01-07T16:01:07.661Z,-12.13
2024-01-07T16:06:10.135Z,-12.18
2024-01-07T16:11:17.097Z,-12.17
2024-01-07T16:16:21.915Z,-12.17
2024-01-07T16:21:24.026Z,-12.13
2024-01-07T16:26:25.947Z,-12.13
2024-01-07T16:31:28.195Z,-12.10
2024-01-07T16:36:30.441Z,-12.08
2024-01-07T16:41:32.905Z,-12.13
2024-01-07T16:46:36.799Z,-12.16
2024-01-07T16:51:39.216Z,-12.15
2024-01-07T16:56:42.262Z,-12.14
2024-01-07T17:01:45.166Z,-12.15
2024-01-07T17:06:49.453Z,-12.13
2024-01-07T17:11:51.546Z,-12.23
2024-01-07T17:16:55.459Z,-12.32
2024-01-07T17:21:57.533Z,-12.44
2024-01-07T17:27:00.032Z,-12.49
2024-01-07T17:32:02.117Z,-12.55
2024-01-07T17:37:04.656Z,-12.62
2024-01-07T17:42:08.524Z,-12.63
2024-01-07T17:47:10.763Z,-12.65
2024-01-07T17:52:13.656Z,-12.72
2024-01-07T17:57:16.052Z,-12.79
2024-01-07T18:02:18.264Z,-12.81
2024-01-07T18:07:20.434Z,-12.80
2024-01-07T18:12:24.242Z,-12.81
2024-01-07T18:17:26.433Z,-12.82
2024-01-07T18:22:29.030Z,-12.83
2024-01-07T18:27:31.322Z,-12.83
2024-01-07T18:32:35.169Z,-12.82
2024-01-07T18:37:37.765Z,-12.85
2024-01-07T18:42:40.021Z,-12.76
2024-01-07T18:47:44.050Z,-12.71
2024-01-07T18:52:46.951Z,-12.69
2024-01-07T18:57:49.769Z,-12.65
2024-01-07T19:02:51.986Z,-12.66
2024-01-07T19:07:54.253Z,-12.67
2024-01-07T19:12:56.424Z,-12.66
2024-01-07T19:17:58.544Z,-12.74
2024-01-07T19:23:04.672Z,-12.75
2024-01-07T19:28:06.756Z,-12.75
2024-01-07T19:33:09.249Z,-12.77
2024-01-07T19:38:12.377Z,-12.77
2024-01-07T19:43:16.039Z,-12.73
2024-01-07T19:48:18.030Z,-12.73
2024-01-07T19:53:29.849Z,-12.80
2024-01-07T19:58:33.231Z,-12.83
2024-01-07T20:03:41.848Z,-12.80
2024-01-07T20:08:49.694Z,-12.76
2024-01-07T20:13:52.506Z,-12.76
2024-01-07T20:18:54.754Z,-12.76
2024-01-07T20:24:01.680Z,-12.67
2024-01-07T20:29:08.139Z,-12.61
2024-01-07T20:34:11.215Z,-12.62
2024-01-07T20:39:13.253Z,-12.69
2024-01-07T20:44:15.218Z,-12.77
2024-01-07T20:49:17.979Z,-12.86
2024-01-07T20:54:20.046Z,-12.92
2024-01-07T20:59:22.180Z,-13.03
2024-01-07T21:04:24.508Z,-13.17
2024-01-07T21:09:26.604Z,-13.26
2024-01-07T21:14:28.794Z,-13.33
2024-01-07T21:19:30.947Z,-13.52
2024-01-07T21:24:34.444Z,-13.67
2024-01-07T21:29:36.295Z,-13.76
2024-01-07T21:34:38.812Z,-13.86
2024-01-07T21:39:42.339Z,-13.93
2024-01-07T21:44:45.739Z,-14.02
2024-01-07T21:49:49.239Z,-14.02
2024-01-07T21:54:51.060Z,-14.09
2024-01-07T21:59:53.213Z,-14.12
2024-01-07T22:04:55.290Z,-14.18
2024-01-07T22:09:58.882Z,-14.22
2024-01-07T22:15:00.665Z,-14.20
2024-01-07T22:20:02.855Z,-14.17
2024-01-07T22:25:05.446Z,-14.18
2024-01-07T22:30:07.996Z,-14.20
2024-01-07T22:35:11.408Z,-14.24
2024-01-07T22:40:13.248Z,-14.25
2024-01-07T22:45:15.087Z,-14.24
2024-01-07T22:50:17.163Z,-14.29
2024-01-07T22:55:19.076Z,-14.38
2024-01-07T23:00:24.673Z,-14.40
2024-01-07T23:05:26.959Z,-14.41
2024-01-07T23:10:29.160Z,-14.51
2024-01-07T23:15:31.041Z,-14.52
2024-01-07T23:20:35.173Z,-14.57
2024-01-07T23:25:37.477Z,-14.64
2024-01-07T23:30:39.862Z,-14.65
2024-01-07T23:35:50.528Z,-14.72
2024-01-07T23:41:00.059Z,-14.75
2024-01-07T23:46:02.078Z,-14.77
2024-01-07T23:51:04.320Z,-14.77
2024-01-07T23:56:06.462Z,-14.79
